sensor_id;sensor_type;location;lat;lon;timestamp;P1;durP1;ratioP1;P2;durP2;ratioP2
7051;SDS011;3567;52.444;13.556;2022-11-02T00:00:31;10.80;;;9.63;;
7051;SDS011;3567;52.444;13.556;2022-11-02T00:02:58;11.73;;;8.73;;
7051;SDS011;3567;52.444;13.556;2022-11-02T00:05:24;11.45;;;9.20;;
7051;SDS011;3567;52.444;13.556;2022-11-02T00:07:51;9.52;;;8.52;;
7051;SDS011;3567;52.444;13.556;2022-11-02T00:10:17;13.77;;;10.45;;
7051;SDS011;3567;52.444;13.556;2022-11-02T00:12:43;12.60;;;9.38;;
7051;SDS011;3567;52.444;13.556;2022-11-02T00:15:10;9.73;;;8.82;;
7051;SDS011;3567;52.444;13.556;2022-11-02T00:17:36;10.75;;;9.63;;
7051;SDS011;3567;52.444;13.556;2022-11-02T00:20:03;13.85;;;10.13;;
7051;SDS011;3567;52.444;13.556;2022-11-02T00:22:29;10.65;;;9.15;;
7051;SDS011;3567;52.444;13.556;2022-11-02T00:24:55;11.07;;;8.90;;
7051;SDS011;3567;52.444;13.556;2022-11-02T00:27:21;14.70;;;10.82;;
7051;SDS011;3567;52.444;13.556;2022-11-02T00:29:47;13.35;;;11.05;;
7051;SDS011;3567;52.444;13.556;2022-11-02T00:32:13;14.82;;;11.00;;
7051;SDS011;3567;52.444;13.556;2022-11-02T00:34:38;14.18;;;10.02;;
7051;SDS011;3567;52.444;13.556;2022-11-02T00:37:03;15.15;;;10.85;;
7051;SDS011;3567;52.444;13.556;2022-11-02T00:39:29;11.18;;;9.93;;
7051;SDS011;3567;52.444;13.556;2022-11-02T00:41:55;11.63;;;9.05;;
7051;SDS011;3567;52.444;13.556;2022-11-02T00:44:20;10.55;;;8.77;;
7051;SDS011;3567;52.444;13.556;2022-11-02T00:46:45;12.38;;;10.23;;
7051;SDS011;3567;52.444;13.556;2022-11-02T00:49:11;15.32;;;10.20;;
7051;SDS011;3567;52.444;13.556;2022-11-02T00:51:36;12.00;;;9.93;;
7051;SDS011;3567;52.444;13.556;2022-11-02T00:54:01;14.32;;;10.15;;
7051;SDS011;3567;52.444;13.556;2022-11-02T00:56:27;13.95;;;10.65;;
7051;SDS011;3567;52.444;13.556;2022-11-02T00:58:52;21.27;;;13.73;;
7051;SDS011;3567;52.444;13.556;2022-11-02T01:01:17;19.42;;;14.25;;
7051;SDS011;3567;52.444;13.556;2022-11-02T01:03:43;17.15;;;12.55;;
7051;SDS011;3567;52.444;13.556;2022-11-02T01:06:12;13.73;;;10.13;;
7051;SDS011;3567;52.444;13.556;2022-11-02T01:08:38;10.38;;;9.27;;
7051;SDS011;3567;52.444;13.556;2022-11-02T01:11:14;14.02;;;9.43;;
7051;SDS011;3567;52.444;13.556;2022-11-02T01:13:42;11.57;;;8.43;;
7051;SDS011;3567;52.444;13.556;2022-11-02T01:16:08;9.65;;;8.65;;
7051;SDS011;3567;52.444;13.556;2022-11-02T01:18:34;12.00;;;8.65;;
7051;SDS011;3567;52.444;13.556;2022-11-02T01:21:00;13.25;;;8.55;;
7051;SDS011;3567;52.444;13.556;2022-11-02T01:23:25;11.07;;;8.02;;
7051;SDS011;3567;52.444;13.556;2022-11-02T01:25:51;8.55;;;7.75;;
7051;SDS011;3567;52.444;13.556;2022-11-02T01:28:16;11.68;;;8.02;;
7051;SDS011;3567;52.444;13.556;2022-11-02T01:30:42;9.75;;;8.45;;
7051;SDS011;3567;52.444;13.556;2022-11-02T01:33:07;14.63;;;9.15;;
7051;SDS011;3567;52.444;13.556;2022-11-02T01:35:33;8.82;;;7.93;;
7051;SDS011;3567;52.444;13.556;2022-11-02T01:38:00;8.95;;;7.82;;
7051;SDS011;3567;52.444;13.556;2022-11-02T01:40:26;9.02;;;8.00;;
7051;SDS011;3567;52.444;13.556;2022-11-02T01:42:51;8.57;;;6.95;;
7051;SDS011;3567;52.444;13.556;2022-11-02T01:45:16;9.90;;;8.02;;
7051;SDS011;3567;52.444;13.556;2022-11-02T01:47:43;12.55;;;8.50;;
7051;SDS011;3567;52.444;13.556;2022-11-02T01:50:13;12.05;;;7.65;;
7051;SDS011;3567;52.444;13.556;2022-11-02T01:52:46;11.50;;;7.75;;
7051;SDS011;3567;52.444;13.556;2022-11-02T01:55:12;9.60;;;7.10;;
7051;SDS011;3567;52.444;13.556;2022-11-02T01:57:45;10.70;;;8.07;;
7051;SDS011;3567;52.444;13.556;2022-11-02T02:00:15;7.63;;;6.13;;
7051;SDS011;3567;52.444;13.556;2022-11-02T02:02:44;9.88;;;6.82;;
7051;SDS011;3567;52.444;13.556;2022-11-02T02:05:24;8.65;;;7.07;;
7051;SDS011;3567;52.444;13.556;2022-11-02T02:07:50;7.65;;;6.85;;
7051;SDS011;3567;52.444;13.556;2022-11-02T02:10:17;6.50;;;5.90;;
7051;SDS011;3567;52.444;13.556;2022-11-02T02:12:42;6.35;;;5.65;;
7051;SDS011;3567;52.444;13.556;2022-11-02T02:15:08;6.90;;;6.20;;
7051;SDS011;3567;52.444;13.556;2022-11-02T02:20:08;7.07;;;6.38;;
7051;SDS011;3567;52.444;13.556;2022-11-02T02:33:47;9.18;;;6.10;;
7051;SDS011;3567;52.444;13.556;2022-11-02T02:36:28;8.60;;;6.13;;
7051;SDS011;3567;52.444;13.556;2022-11-02T02:41:38;7.63;;;5.90;;
7051;SDS011;3567;52.444;13.556;2022-11-02T02:44:09;11.77;;;6.50;;
7051;SDS011;3567;52.444;13.556;2022-11-02T02:49:18;8.32;;;6.55;;
7051;SDS011;3567;52.444;13.556;2022-11-02T02:51:49;9.57;;;5.65;;
7051;SDS011;3567;52.444;13.556;2022-11-02T02:54:19;7.20;;;6.47;;
7051;SDS011;3567;52.444;13.556;2022-11-02T02:56:49;7.03;;;6.32;;
7051;SDS011;3567;52.444;13.556;2022-11-02T02:59:23;6.57;;;6.00;;
7051;SDS011;3567;52.444;13.556;2022-11-02T03:01:52;6.80;;;5.60;;
7051;SDS011;3567;52.444;13.556;2022-11-02T03:04:19;8.00;;;5.40;;
7051;SDS011;3567;52.444;13.556;2022-11-02T03:06:49;7.57;;;5.30;;
7051;SDS011;3567;52.444;13.556;2022-11-02T03:17:16;11.32;;;5.90;;
7051;SDS011;3567;52.444;13.556;2022-11-02T03:25:23;10.80;;;6.55;;
7051;SDS011;3567;52.444;13.556;2022-11-02T03:30:23;5.57;;;5.05;;
7051;SDS011;3567;52.444;13.556;2022-11-02T03:35:32;7.57;;;5.18;;
7051;SDS011;3567;52.444;13.556;2022-11-02T03:38:06;9.50;;;4.65;;
7051;SDS011;3567;52.444;13.556;2022-11-02T03:40:41;7.00;;;4.88;;
7051;SDS011;3567;52.444;13.556;2022-11-02T03:43:09;11.25;;;5.65;;
7051;SDS011;3567;52.444;13.556;2022-11-02T03:45:37;6.47;;;4.25;;
7051;SDS011;3567;52.444;13.556;2022-11-02T03:48:06;6.90;;;4.40;;
7051;SDS011;3567;52.444;13.556;2022-11-02T03:50:36;5.53;;;4.22;;
7051;SDS011;3567;52.444;13.556;2022-11-02T03:53:06;7.63;;;4.35;;
7051;SDS011;3567;52.444;13.556;2022-11-02T03:55:38;6.47;;;4.15;;
7051;SDS011;3567;52.444;13.556;2022-11-02T03:58:10;5.60;;;3.70;;
7051;SDS011;3567;52.444;13.556;2022-11-02T04:00:36;7.25;;;4.18;;
7051;SDS011;3567;52.444;13.556;2022-11-02T04:03:08;7.45;;;4.45;;
7051;SDS011;3567;52.444;13.556;2022-11-02T04:05:36;8.05;;;3.63;;
7051;SDS011;3567;52.444;13.556;2022-11-02T04:08:02;5.95;;;3.95;;
7051;SDS011;3567;52.444;13.556;2022-11-02T04:10:47;7.13;;;3.40;;
7051;SDS011;3567;52.444;13.556;2022-11-02T04:13:34;4.10;;;3.03;;
7051;SDS011;3567;52.444;13.556;2022-11-02T04:16:18;8.55;;;4.03;;
7051;SDS011;3567;52.444;13.556;2022-11-02T04:18:44;5.85;;;3.47;;
7051;SDS011;3567;52.444;13.556;2022-11-02T04:21:28;8.18;;;3.60;;
7051;SDS011;3567;52.444;13.556;2022-11-02T04:23:54;5.05;;;3.00;;
7051;SDS011;3567;52.444;13.556;2022-11-02T04:26:38;8.55;;;3.58;;
7051;SDS011;3567;52.444;13.556;2022-11-02T04:29:04;9.00;;;3.60;;
7051;SDS011;3567;52.444;13.556;2022-11-02T04:31:29;6.32;;;2.67;;
7051;SDS011;3567;52.444;13.556;2022-11-02T04:33:55;5.72;;;3.20;;
7051;SDS011;3567;52.444;13.556;2022-11-02T04:36:22;6.25;;;2.95;;
7051;SDS011;3567;52.444;13.556;2022-11-02T04:38:47;5.57;;;2.97;;
7051;SDS011;3567;52.444;13.556;2022-11-02T04:41:16;4.32;;;2.75;;
7051;SDS011;3567;52.444;13.556;2022-11-02T04:44:02;5.85;;;2.80;;
7051;SDS011;3567;52.444;13.556;2022-11-02T04:46:29;8.35;;;3.40;;
7051;SDS011;3567;52.444;13.556;2022-11-02T04:48:56;4.20;;;3.00;;
7051;SDS011;3567;52.444;13.556;2022-11-02T04:51:22;5.90;;;2.88;;
7051;SDS011;3567;52.444;13.556;2022-11-02T04:53:50;6.35;;;2.63;;
7051;SDS011;3567;52.444;13.556;2022-11-02T04:56:16;10.90;;;3.85;;
7051;SDS011;3567;52.444;13.556;2022-11-02T04:58:42;8.80;;;3.22;;
7051;SDS011;3567;52.444;13.556;2022-11-02T05:01:07;5.22;;;2.45;;
7051;SDS011;3567;52.444;13.556;2022-11-02T05:03:37;4.28;;;2.70;;
7051;SDS011;3567;52.444;13.556;2022-11-02T05:06:03;6.40;;;2.42;;
7051;SDS011;3567;52.444;13.556;2022-11-02T05:08:29;4.45;;;2.70;;
7051;SDS011;3567;52.444;13.556;2022-11-02T05:10:55;5.20;;;2.50;;
7051;SDS011;3567;52.444;13.556;2022-11-02T05:13:22;7.28;;;2.88;;
7051;SDS011;3567;52.444;13.556;2022-11-02T05:15:48;5.93;;;3.10;;
7051;SDS011;3567;52.444;13.556;2022-11-02T05:18:14;8.50;;;3.33;;
7051;SDS011;3567;52.444;13.556;2022-11-02T05:20:39;10.40;;;3.80;;
7051;SDS011;3567;52.444;13.556;2022-11-02T05:23:05;5.63;;;3.33;;
7051;SDS011;3567;52.444;13.556;2022-11-02T05:25:30;12.77;;;4.13;;
7051;SDS011;3567;52.444;13.556;2022-11-02T05:27:56;9.68;;;3.88;;
7051;SDS011;3567;52.444;13.556;2022-11-02T05:30:22;11.80;;;4.10;;
7051;SDS011;3567;52.444;13.556;2022-11-02T05:32:47;7.60;;;3.70;;
7051;SDS011;3567;52.444;13.556;2022-11-02T05:35:13;13.65;;;4.53;;
7051;SDS011;3567;52.444;13.556;2022-11-02T05:37:38;6.65;;;3.72;;
7051;SDS011;3567;52.444;13.556;2022-11-02T05:40:04;8.73;;;3.17;;
7051;SDS011;3567;52.444;13.556;2022-11-02T05:42:30;7.90;;;3.83;;
7051;SDS011;3567;52.444;13.556;2022-11-02T05:44:56;7.72;;;3.10;;
7051;SDS011;3567;52.444;13.556;2022-11-02T05:47:21;4.57;;;2.67;;
7051;SDS011;3567;52.444;13.556;2022-11-02T05:49:46;9.48;;;2.97;;
7051;SDS011;3567;52.444;13.556;2022-11-02T05:52:12;8.68;;;3.00;;
7051;SDS011;3567;52.444;13.556;2022-11-02T05:54:37;7.25;;;3.25;;
7051;SDS011;3567;52.444;13.556;2022-11-02T05:57:02;8.85;;;3.30;;
7051;SDS011;3567;52.444;13.556;2022-11-02T05:59:28;7.90;;;2.72;;
7051;SDS011;3567;52.444;13.556;2022-11-02T06:01:53;5.18;;;2.50;;
7051;SDS011;3567;52.444;13.556;2022-11-02T06:04:18;11.15;;;3.17;;
7051;SDS011;3567;52.444;13.556;2022-11-02T06:06:44;10.93;;;3.80;;
7051;SDS011;3567;52.444;13.556;2022-11-02T06:09:10;12.65;;;5.18;;
7051;SDS011;3567;52.444;13.556;2022-11-02T06:11:35;7.90;;;5.22;;
7051;SDS011;3567;52.444;13.556;2022-11-02T06:14:00;10.27;;;4.85;;
7051;SDS011;3567;52.444;13.556;2022-11-02T06:16:27;11.85;;;5.78;;
7051;SDS011;3567;52.444;13.556;2022-11-02T06:18:53;12.00;;;4.47;;
7051;SDS011;3567;52.444;13.556;2022-11-02T06:21:18;15.35;;;5.60;;
7051;SDS011;3567;52.444;13.556;2022-11-02T06:23:45;12.68;;;4.93;;
7051;SDS011;3567;52.444;13.556;2022-11-02T06:26:11;10.43;;;4.13;;
7051;SDS011;3567;52.444;13.556;2022-11-02T06:28:37;7.25;;;3.03;;
7051;SDS011;3567;52.444;13.556;2022-11-02T06:31:02;5.43;;;3.70;;
7051;SDS011;3567;52.444;13.556;2022-11-02T06:33:27;7.85;;;2.95;;
7051;SDS011;3567;52.444;13.556;2022-11-02T06:35:54;9.23;;;3.45;;
7051;SDS011;3567;52.444;13.556;2022-11-02T06:38:19;8.30;;;2.80;;
7051;SDS011;3567;52.444;13.556;2022-11-02T06:40:58;4.90;;;2.42;;
7051;SDS011;3567;52.444;13.556;2022-11-02T06:43:30;6.28;;;3.55;;
7051;SDS011;3567;52.444;13.556;2022-11-02T06:45:56;12.23;;;3.78;;
7051;SDS011;3567;52.444;13.556;2022-11-02T06:48:23;6.72;;;2.88;;
7051;SDS011;3567;52.444;13.556;2022-11-02T06:50:49;7.60;;;3.10;;
7051;SDS011;3567;52.444;13.556;2022-11-02T06:53:14;11.68;;;4.13;;
7051;SDS011;3567;52.444;13.556;2022-11-02T06:55:40;28.52;;;16.80;;
7051;SDS011;3567;52.444;13.556;2022-11-02T06:58:05;14.82;;;4.78;;
7051;SDS011;3567;52.444;13.556;2022-11-02T07:00:30;9.30;;;3.08;;
7051;SDS011;3567;52.444;13.556;2022-11-02T07:02:59;7.35;;;3.13;;
7051;SDS011;3567;52.444;13.556;2022-11-02T07:05:32;7.43;;;2.60;;
7051;SDS011;3567;52.444;13.556;2022-11-02T07:07:58;14.23;;;3.10;;
7051;SDS011;3567;52.444;13.556;2022-11-02T07:10:23;6.43;;;2.60;;
7051;SDS011;3567;52.444;13.556;2022-11-02T07:12:50;6.90;;;2.50;;
7051;SDS011;3567;52.444;13.556;2022-11-02T07:15:17;15.05;;;5.75;;
7051;SDS011;3567;52.444;13.556;2022-11-02T07:17:43;7.78;;;3.45;;
7051;SDS011;3567;52.444;13.556;2022-11-02T07:20:08;8.65;;;2.60;;
7051;SDS011;3567;52.444;13.556;2022-11-02T07:22:34;8.70;;;2.97;;
7051;SDS011;3567;52.444;13.556;2022-11-02T07:25:00;9.50;;;2.78;;
7051;SDS011;3567;52.444;13.556;2022-11-02T07:27:26;3.53;;;2.22;;
7051;SDS011;3567;52.444;13.556;2022-11-02T07:29:51;9.98;;;2.60;;
7051;SDS011;3567;52.444;13.556;2022-11-02T07:32:16;8.85;;;2.20;;
7051;SDS011;3567;52.444;13.556;2022-11-02T07:34:42;7.85;;;3.53;;
7051;SDS011;3567;52.444;13.556;2022-11-02T07:37:07;9.27;;;3.15;;
7051;SDS011;3567;52.444;13.556;2022-11-02T07:39:32;9.20;;;2.50;;
7051;SDS011;3567;52.444;13.556;2022-11-02T07:41:58;12.40;;;2.42;;
7051;SDS011;3567;52.444;13.556;2022-11-02T07:44:23;4.13;;;1.95;;
7051;SDS011;3567;52.444;13.556;2022-11-02T07:46:48;8.45;;;2.60;;
7051;SDS011;3567;52.444;13.556;2022-11-02T07:49:14;7.90;;;2.47;;
7051;SDS011;3567;52.444;13.556;2022-11-02T07:51:39;9.18;;;2.00;;
7051;SDS011;3567;52.444;13.556;2022-11-02T07:54:04;10.60;;;1.90;;
7051;SDS011;3567;52.444;13.556;2022-11-02T07:56:30;8.73;;;1.70;;
7051;SDS011;3567;52.444;13.556;2022-11-02T07:58:55;7.18;;;2.25;;
7051;SDS011;3567;52.444;13.556;2022-11-02T08:01:21;8.27;;;1.90;;
7051;SDS011;3567;52.444;13.556;2022-11-02T08:03:48;7.50;;;1.67;;
7051;SDS011;3567;52.444;13.556;2022-11-02T08:06:13;10.88;;;1.52;;
7051;SDS011;3567;52.444;13.556;2022-11-02T08:08:38;10.77;;;1.83;;
7051;SDS011;3567;52.444;13.556;2022-11-02T08:11:05;9.18;;;2.30;;
7051;SDS011;3567;52.444;13.556;2022-11-02T08:13:32;7.47;;;1.92;;
7051;SDS011;3567;52.444;13.556;2022-11-02T08:15:57;6.50;;;1.65;;
7051;SDS011;3567;52.444;13.556;2022-11-02T08:18:23;6.47;;;1.73;;
7051;SDS011;3567;52.444;13.556;2022-11-02T08:20:50;9.90;;;1.42;;
7051;SDS011;3567;52.444;13.556;2022-11-02T08:23:16;4.97;;;1.67;;
7051;SDS011;3567;52.444;13.556;2022-11-02T08:25:44;6.80;;;1.45;;
7051;SDS011;3567;52.444;13.556;2022-11-02T08:28:12;10.43;;;1.45;;
7051;SDS011;3567;52.444;13.556;2022-11-02T08:30:40;5.55;;;1.48;;
7051;SDS011;3567;52.444;13.556;2022-11-02T08:33:06;4.00;;;1.35;;
7051;SDS011;3567;52.444;13.556;2022-11-02T08:35:35;7.78;;;3.65;;
7051;SDS011;3567;52.444;13.556;2022-11-02T08:38:02;10.25;;;1.92;;
7051;SDS011;3567;52.444;13.556;2022-11-02T08:40:28;4.97;;;1.35;;
7051;SDS011;3567;52.444;13.556;2022-11-02T08:42:57;12.10;;;1.70;;
7051;SDS011;3567;52.444;13.556;2022-11-02T08:45:23;10.18;;;1.98;;
7051;SDS011;3567;52.444;13.556;2022-11-02T08:47:49;8.85;;;1.52;;
7051;SDS011;3567;52.444;13.556;2022-11-02T08:50:14;10.77;;;1.52;;
7051;SDS011;3567;52.444;13.556;2022-11-02T08:52:40;6.70;;;1.23;;
7051;SDS011;3567;52.444;13.556;2022-11-02T08:55:05;9.68;;;2.00;;
7051;SDS011;3567;52.444;13.556;2022-11-02T08:57:31;10.77;;;1.63;;
7051;SDS011;3567;52.444;13.556;2022-11-02T08:59:56;7.20;;;1.63;;
7051;SDS011;3567;52.444;13.556;2022-11-02T09:02:22;5.75;;;1.40;;
7051;SDS011;3567;52.444;13.556;2022-11-02T09:04:47;9.13;;;1.65;;
7051;SDS011;3567;52.444;13.556;2022-11-02T09:07:12;4.65;;;1.45;;
7051;SDS011;3567;52.444;13.556;2022-11-02T09:09:38;4.07;;;1.38;;
7051;SDS011;3567;52.444;13.556;2022-11-02T09:12:03;5.13;;;1.42;;
7051;SDS011;3567;52.444;13.556;2022-11-02T09:14:29;5.80;;;1.20;;
7051;SDS011;3567;52.444;13.556;2022-11-02T09:16:55;8.88;;;1.48;;
7051;SDS011;3567;52.444;13.556;2022-11-02T09:19:20;8.60;;;1.67;;
7051;SDS011;3567;52.444;13.556;2022-11-02T09:21:46;7.20;;;1.73;;
7051;SDS011;3567;52.444;13.556;2022-11-02T09:24:13;9.30;;;1.60;;
7051;SDS011;3567;52.444;13.556;2022-11-02T09:26:39;7.40;;;1.90;;
7051;SDS011;3567;52.444;13.556;2022-11-02T09:29:04;6.85;;;1.40;;
7051;SDS011;3567;52.444;13.556;2022-11-02T09:31:29;6.25;;;1.40;;
7051;SDS011;3567;52.444;13.556;2022-11-02T09:33:55;6.03;;;1.52;;
7051;SDS011;3567;52.444;13.556;2022-11-02T09:36:20;3.83;;;1.17;;
7051;SDS011;3567;52.444;13.556;2022-11-02T09:38:46;9.32;;;1.58;;
7051;SDS011;3567;52.444;13.556;2022-11-02T09:41:12;4.55;;;1.25;;
7051;SDS011;3567;52.444;13.556;2022-11-02T09:43:51;7.35;;;1.77;;
7051;SDS011;3567;52.444;13.556;2022-11-02T09:46:52;5.57;;;1.08;;
7051;SDS011;3567;52.444;13.556;2022-11-02T09:49:18;5.82;;;1.55;;
7051;SDS011;3567;52.444;13.556;2022-11-02T09:51:48;5.45;;;1.67;;
7051;SDS011;3567;52.444;13.556;2022-11-02T09:54:26;6.80;;;2.22;;
7051;SDS011;3567;52.444;13.556;2022-11-02T09:56:55;6.18;;;1.70;;
7051;SDS011;3567;52.444;13.556;2022-11-02T09:59:25;7.25;;;1.88;;
7051;SDS011;3567;52.444;13.556;2022-11-02T10:01:55;6.15;;;1.70;;
7051;SDS011;3567;52.444;13.556;2022-11-02T10:04:38;5.35;;;1.67;;
7051;SDS011;3567;52.444;13.556;2022-11-02T10:07:17;10.88;;;1.63;;
7051;SDS011;3567;52.444;13.556;2022-11-02T10:09:55;8.88;;;1.50;;
7051;SDS011;3567;52.444;13.556;2022-11-02T10:17:46;5.20;;;1.30;;
7051;SDS011;3567;52.444;13.556;2022-11-02T10:22:50;5.45;;;1.73;;
7051;SDS011;3567;52.444;13.556;2022-11-02T10:25:23;6.38;;;1.70;;
7051;SDS011;3567;52.444;13.556;2022-11-02T10:27:48;6.50;;;1.30;;
7051;SDS011;3567;52.444;13.556;2022-11-02T10:30:24;6.75;;;1.15;;
7051;SDS011;3567;52.444;13.556;2022-11-02T10:32:51;4.88;;;1.20;;
7051;SDS011;3567;52.444;13.556;2022-11-02T10:35:26;2.83;;;1.50;;
7051;SDS011;3567;52.444;13.556;2022-11-02T10:52:05;2.88;;;1.17;;
7051;SDS011;3567;52.444;13.556;2022-11-02T10:54:32;4.65;;;1.10;;
7051;SDS011;3567;52.444;13.556;2022-11-02T10:56:57;4.25;;;0.80;;
7051;SDS011;3567;52.444;13.556;2022-11-02T10:59:23;7.13;;;1.52;;
7051;SDS011;3567;52.444;13.556;2022-11-02T11:04:22;5.20;;;1.08;;
7051;SDS011;3567;52.444;13.556;2022-11-02T11:06:53;6.72;;;1.60;;
7051;SDS011;3567;52.444;13.556;2022-11-02T11:09:44;5.95;;;1.83;;
7051;SDS011;3567;52.444;13.556;2022-11-02T11:12:15;6.43;;;1.40;;
7051;SDS011;3567;52.444;13.556;2022-11-02T11:14:45;7.63;;;1.50;;
7051;SDS011;3567;52.444;13.556;2022-11-02T11:17:37;8.00;;;1.48;;
7051;SDS011;3567;52.444;13.556;2022-11-02T11:20:06;5.22;;;1.45;;
7051;SDS011;3567;52.444;13.556;2022-11-02T11:22:48;11.60;;;2.00;;
7051;SDS011;3567;52.444;13.556;2022-11-02T11:25:42;6.07;;;1.45;;
7051;SDS011;3567;52.444;13.556;2022-11-02T11:28:27;8.27;;;1.90;;
7051;SDS011;3567;52.444;13.556;2022-11-02T11:31:12;6.82;;;1.40;;
7051;SDS011;3567;52.444;13.556;2022-11-02T11:33:44;5.45;;;1.30;;
7051;SDS011;3567;52.444;13.556;2022-11-02T11:36:26;9.63;;;1.60;;
7051;SDS011;3567;52.444;13.556;2022-11-02T11:38:55;5.05;;;1.20;;
7051;SDS011;3567;52.444;13.556;2022-11-02T11:41:24;7.22;;;1.40;;
7051;SDS011;3567;52.444;13.556;2022-11-02T11:43:49;6.10;;;1.25;;
7051;SDS011;3567;52.444;13.556;2022-11-02T11:46:16;11.32;;;2.25;;
7051;SDS011;3567;52.444;13.556;2022-11-02T11:51:26;5.82;;;1.42;;
7051;SDS011;3567;52.444;13.556;2022-11-02T11:56:42;5.65;;;1.63;;
7051;SDS011;3567;52.444;13.556;2022-11-02T11:59:17;5.55;;;1.70;;
7051;SDS011;3567;52.444;13.556;2022-11-02T12:01:44;4.68;;;1.58;;
7051;SDS011;3567;52.444;13.556;2022-11-02T12:04:09;6.18;;;1.48;;
7051;SDS011;3567;52.444;13.556;2022-11-02T12:09:36;9.15;;;1.38;;
7051;SDS011;3567;52.444;13.556;2022-11-02T12:15:38;10.20;;;1.75;;
7051;SDS011;3567;52.444;13.556;2022-11-02T12:18:37;9.27;;;1.40;;
7051;SDS011;3567;52.444;13.556;2022-11-02T12:41:03;7.70;;;1.83;;
7051;SDS011;3567;52.444;13.556;2022-11-02T12:43:45;6.28;;;1.60;;
7051;SDS011;3567;52.444;13.556;2022-11-02T12:51:28;6.00;;;1.50;;
7051;SDS011;3567;52.444;13.556;2022-11-02T12:53:57;6.50;;;0.90;;
7051;SDS011;3567;52.444;13.556;2022-11-02T12:59:22;4.25;;;1.20;;
7051;SDS011;3567;52.444;13.556;2022-11-02T13:01:55;4.05;;;1.10;;
7051;SDS011;3567;52.444;13.556;2022-11-02T13:04:27;8.38;;;2.03;;
7051;SDS011;3567;52.444;13.556;2022-11-02T13:07:00;6.03;;;1.45;;
7051;SDS011;3567;52.444;13.556;2022-11-02T13:09:30;5.05;;;1.25;;
7051;SDS011;3567;52.444;13.556;2022-11-02T13:12:11;7.88;;;1.27;;
7051;SDS011;3567;52.444;13.556;2022-11-02T13:14:47;6.55;;;1.00;;
7051;SDS011;3567;52.444;13.556;2022-11-02T13:17:29;5.28;;;1.27;;
7051;SDS011;3567;52.444;13.556;2022-11-02T13:20:18;8.23;;;1.23;;
7051;SDS011;3567;52.444;13.556;2022-11-02T13:22:50;5.22;;;1.20;;
7051;SDS011;3567;52.444;13.556;2022-11-02T13:25:27;6.57;;;0.80;;
7051;SDS011;3567;52.444;13.556;2022-11-02T13:28:00;5.00;;;0.77;;
7051;SDS011;3567;52.444;13.556;2022-11-02T13:30:27;2.63;;;0.63;;
7051;SDS011;3567;52.444;13.556;2022-11-02T13:32:58;3.20;;;0.90;;
7051;SDS011;3567;52.444;13.556;2022-11-02T13:35:45;3.35;;;0.93;;
7051;SDS011;3567;52.444;13.556;2022-11-02T13:40:38;3.83;;;0.80;;
7051;SDS011;3567;52.444;13.556;2022-11-02T13:43:19;2.45;;;0.60;;
7051;SDS011;3567;52.444;13.556;2022-11-02T13:54:43;1.85;;;0.60;;
7051;SDS011;3567;52.444;13.556;2022-11-02T13:57:21;3.75;;;0.88;;
7051;SDS011;3567;52.444;13.556;2022-11-02T14:00:00;3.15;;;0.93;;
7051;SDS011;3567;52.444;13.556;2022-11-02T14:02:32;1.70;;;0.82;;
7051;SDS011;3567;52.444;13.556;2022-11-02T14:05:00;3.25;;;0.93;;
7051;SDS011;3567;52.444;13.556;2022-11-02T14:07:33;3.72;;;1.15;;
7051;SDS011;3567;52.444;13.556;2022-11-02T14:10:23;5.63;;;0.98;;
7051;SDS011;3567;52.444;13.556;2022-11-02T14:12:48;2.65;;;1.13;;
7051;SDS011;3567;52.444;13.556;2022-11-02T14:20:39;7.68;;;1.13;;
7051;SDS011;3567;52.444;13.556;2022-11-02T14:30:56;3.38;;;1.00;;
7051;SDS011;3567;52.444;13.556;2022-11-02T14:47:26;5.68;;;1.10;;
7051;SDS011;3567;52.444;13.556;2022-11-02T14:49:56;4.38;;;1.08;;
7051;SDS011;3567;52.444;13.556;2022-11-02T14:52:34;3.60;;;1.13;;
7051;SDS011;3567;52.444;13.556;2022-11-02T14:55:02;5.30;;;1.00;;
7051;SDS011;3567;52.444;13.556;2022-11-02T15:00:16;6.03;;;1.40;;
7051;SDS011;3567;52.444;13.556;2022-11-02T15:02:42;3.17;;;1.10;;
7051;SDS011;3567;52.444;13.556;2022-11-02T15:05:08;3.92;;;0.98;;
7051;SDS011;3567;52.444;13.556;2022-11-02T15:07:48;3.55;;;0.75;;
7051;SDS011;3567;52.444;13.556;2022-11-02T15:12:43;3.78;;;1.45;;
7051;SDS011;3567;52.444;13.556;2022-11-02T15:17:53;7.50;;;0.93;;
7051;SDS011;3567;52.444;13.556;2022-11-02T15:20:32;5.03;;;0.90;;
7051;SDS011;3567;52.444;13.556;2022-11-02T15:25:38;5.20;;;1.13;;
7051;SDS011;3567;52.444;13.556;2022-11-02T15:28:06;5.50;;;1.17;;
7051;SDS011;3567;52.444;13.556;2022-11-02T15:30:39;3.08;;;1.10;;
7051;SDS011;3567;52.444;13.556;2022-11-02T15:33:10;3.58;;;0.90;;
7051;SDS011;3567;52.444;13.556;2022-11-02T15:36:00;4.35;;;0.70;;
7051;SDS011;3567;52.444;13.556;2022-11-02T15:38:27;5.63;;;0.90;;
7051;SDS011;3567;52.444;13.556;2022-11-02T15:41:04;10.05;;;0.88;;
7051;SDS011;3567;52.444;13.556;2022-11-02T15:52:07;4.28;;;0.88;;
7051;SDS011;3567;52.444;13.556;2022-11-02T16:02:50;2.20;;;0.73;;
7051;SDS011;3567;52.444;13.556;2022-11-02T16:05:18;4.85;;;1.25;;
7051;SDS011;3567;52.444;13.556;2022-11-02T16:07:47;4.07;;;0.88;;
7051;SDS011;3567;52.444;13.556;2022-11-02T16:10:19;3.28;;;0.75;;
7051;SDS011;3567;52.444;13.556;2022-11-02T16:12:56;4.35;;;1.20;;
7051;SDS011;3567;52.444;13.556;2022-11-02T16:15:23;3.65;;;0.98;;
7051;SDS011;3567;52.444;13.556;2022-11-02T16:17:49;5.53;;;1.25;;
7051;SDS011;3567;52.444;13.556;2022-11-02T16:22:45;3.65;;;1.13;;
7051;SDS011;3567;52.444;13.556;2022-11-02T16:25:27;5.65;;;1.23;;
7051;SDS011;3567;52.444;13.556;2022-11-02T16:28:23;3.08;;;1.10;;
7051;SDS011;3567;52.444;13.556;2022-11-02T16:36:04;11.10;;;4.60;;
7051;SDS011;3567;52.444;13.556;2022-11-02T16:38:31;10.07;;;3.13;;
7051;SDS011;3567;52.444;13.556;2022-11-02T16:40:57;8.05;;;3.85;;
7051;SDS011;3567;52.444;13.556;2022-11-02T16:43:24;5.78;;;1.98;;
7051;SDS011;3567;52.444;13.556;2022-11-02T16:45:50;4.32;;;1.67;;
7051;SDS011;3567;52.444;13.556;2022-11-02T16:48:24;4.50;;;1.67;;
7051;SDS011;3567;52.444;13.556;2022-11-02T16:51:04;3.42;;;1.27;;
7051;SDS011;3567;52.444;13.556;2022-11-02T16:53:40;5.03;;;1.63;;
7051;SDS011;3567;52.444;13.556;2022-11-02T16:58:37;5.63;;;1.67;;
7051;SDS011;3567;52.444;13.556;2022-11-02T17:01:02;4.85;;;1.17;;
7051;SDS011;3567;52.444;13.556;2022-11-02T17:03:30;7.90;;;3.03;;
7051;SDS011;3567;52.444;13.556;2022-11-02T17:05:57;3.38;;;1.60;;
7051;SDS011;3567;52.444;13.556;2022-11-02T17:10:58;5.15;;;1.15;;
7051;SDS011;3567;52.444;13.556;2022-11-02T17:13:26;8.75;;;1.83;;
7051;SDS011;3567;52.444;13.556;2022-11-02T17:15:54;7.30;;;1.58;;
7051;SDS011;3567;52.444;13.556;2022-11-02T17:18:27;3.33;;;1.50;;
7051;SDS011;3567;52.444;13.556;2022-11-02T17:23:37;4.43;;;1.70;;
7051;SDS011;3567;52.444;13.556;2022-11-02T17:28:59;6.25;;;3.25;;
7051;SDS011;3567;52.444;13.556;2022-11-02T17:31:27;5.65;;;2.40;;
7051;SDS011;3567;52.444;13.556;2022-11-02T17:33:53;4.18;;;1.80;;
7051;SDS011;3567;52.444;13.556;2022-11-02T17:36:22;11.38;;;1.33;;
7051;SDS011;3567;52.444;13.556;2022-11-02T17:38:50;5.32;;;1.63;;
7051;SDS011;3567;52.444;13.556;2022-11-02T17:41:16;3.00;;;1.23;;
7051;SDS011;3567;52.444;13.556;2022-11-02T17:44:01;4.03;;;1.08;;
7051;SDS011;3567;52.444;13.556;2022-11-02T17:46:27;3.97;;;1.30;;
7051;SDS011;3567;52.444;13.556;2022-11-02T17:48:53;5.18;;;1.25;;
7051;SDS011;3567;52.444;13.556;2022-11-02T17:51:19;2.30;;;0.90;;
7051;SDS011;3567;52.444;13.556;2022-11-02T17:53:48;2.60;;;1.13;;
7051;SDS011;3567;52.444;13.556;2022-11-02T17:56:13;6.70;;;1.52;;
7051;SDS011;3567;52.444;13.556;2022-11-02T17:58:39;4.55;;;1.67;;
7051;SDS011;3567;52.444;13.556;2022-11-02T18:01:04;6.97;;;1.83;;
7051;SDS011;3567;52.444;13.556;2022-11-02T18:03:30;8.60;;;1.80;;
7051;SDS011;3567;52.444;13.556;2022-11-02T18:05:55;6.05;;;1.70;;
7051;SDS011;3567;52.444;13.556;2022-11-02T18:08:21;7.57;;;2.38;;
7051;SDS011;3567;52.444;13.556;2022-11-02T18:10:48;5.57;;;2.22;;
7051;SDS011;3567;52.444;13.556;2022-11-02T18:13:16;4.22;;;1.92;;
7051;SDS011;3567;52.444;13.556;2022-11-02T18:15:44;3.10;;;2.22;;